Relevés horaires Chievres (Belgique)


Relevés horaires à Chievres - Mardi 08 Mars 2022
Heure UTC1 Température [°C] Vent [km/h] Hum. [%] Pres.4 [hPa] Visi. [Km] Nébu. [octa] Préc.5 [mm] Cond.
2m. Res. Ros. Dir.2 Vit. Moy. Raf.3
23:00 3.4 2 -5.8 SSE 5.6 -- 9.3 51 1020.1(0.3/3h) 20 -- -- --
22:00 4.4 3.2 -6.0 SSE 5.6 -- 7.4 47 1020(0.6/3h) 20 -- -- --
21:00 4.9 4.9 -6.1 SSE 3.7 -- 11.1 45 1020(1.0/3h) 20 -- -- --
20:00 6.4 5.5 -5.9 SSE 5.6 -- 11.1 41 1019.7(1.4/3h) 20 -- -- --
19:00 7.4 6.6 -5.3 SE 5.6 -- 11.1 40 1019.2(1.2/3h) 20 -- -- --
18:00 7.4 6.6 -4.9 SSE 5.6 -- 14.8 41 1018.8(1.0/3h) 20 -- -- --
17:00 9.5 9 -5.0 SSE 5.6 -- 11.1 35 1018.1(0.2/3h) 20 -- -- --
16:00 10.6 10.3 -5.2 SSE 5.6 -- 13.0 32 1017.8(-0.5/3h) 20 -- -- --
15:00 10.7 10 -4.8 SSE 7.4 -- 14.8 33 1017.7(-1.0/3h) 20 -- -- --
14:00 10.4 9.6 -5.4 SE 7.4 -- 13.0 32 1017.8(-1.0/3h) 20 -- -- --
13:00 9.2 8.2 -5.8 SSE 7.4 -- 14.8 34 1018.3(-0.8/3h) 20 -- -- --
12:00 8.1 6.9 -4.7 SE 7.4 -- 16.7 40 1018.7(-0.5/3h) 20 -- -- --
11:00 6.3 4.4 -6.2 SE 9.3 -- 16.7 40 1019.1(-0.1/3h) 19 -- -- --
10:00 4.6 2.3 -6.8 SE 9.3 -- 14.8 43 1019.2(-0.1/3h) 20 -- -- --
09:00 3.0 1 -7.2 SE 7.4 -- 14.8 47 1019.5(0.0/3h) 20 -- -- --
08:00 0.9 -1.5 -5.8 E 7.4 -- 13.0 61 1019.3(-0.3/3h) 16 -- -- --
07:00 -0.3 -2.2 -6.7 ESE 5.6 -- 7.4 62 1019.6(-0.4/3h) 20 -- -- --
06:00 -1.0 -3 -6.4 ESE 5.6 -- 9.3 67 1019.6(-1.0/3h) 20 -- -- --
05:00 -0.4 -2.3 -6.6 ESE 5.6 -- 9.3 63 1019.7(-1.2/3h) 20 -- -- --
04:00 -0.3 -2.2 -6.2 ESE 5.6 -- 9.3 64 1020(-1.3/3h) 20 -- -- --
03:00 -0.4 -2.3 -5.7 E 5.6 -- 9.3 67 1020.6(-0.9/3h) 20 -- -- --
02:00 -0.3 -2.9 -5.7 E 7.4 -- 9.3 67 1021(-0.9/3h) 20 -- -- --
01:00 -0.2 -0.2 -5.5 E 3.7 -- 7.4 67 1021.3(-1.0/3h) 20 -- -- --
00:00 0.0 -1.9 -4.9 E 5.6 -- 11.1 69 1021.5(-1.1/3h) 20 -- -- --

1 Coordinated Universal Time. Actuellement il est 00:00 locale et 23:00 UTC.

2 Le vent souffle depuis la direction indiquée vers la direction oposée.

3 Les rafales max. sont disponible 40 min après l'heure du relevé.

4 Pour les stations d'altitude (plus de 600m) le géopotentiel du niveau le plus proche de la pression obligatoire est indiqué.

5 Les stations disposant d'un diffuseur peuvent indiquer "trace". Cela signifie que des précipitations ont touchés le sol mais que la quantité est inférieure à 0.1 mm.

Récapitulatif de la journée
Température [°C] Vent [km/h] Ensoleillement4 [h] Precipitations totale5 [mm] Pression [Hpa]
Min1 Max.2 Moy.3 Max. Min Max.
-1.0 10.8 0 16.7 0 h 0 min 0 1017.7 1021.5

1 Température minimale relevée entre 18:00 UTC la veille et 18:00 UTC le jour donné.

2 Température maximale relevée entre 06:00 UTC le jour donné et 06:00 UTC le lendemain.

3 Vent moyen de la journée basé sur les relevés horaires.

4 Ensoleillement en heures relevé entre 06:00 UTC la veille et 06:00 UTC le jour donné.

5 Précipitations totales tombées entre 06:00 UTC la jour donné et 06:00 UTC le lendemain.

Graphiques horaires